Time;durP1;ratioP1;P1;durP2;ratioP2;P2;SDS_P1;SDS_P2;PMS_P1;PMS_P2;Temp;Humidity;BMP_temperature;BMP_pressure;BME280_temperature;BME280_humidity;BME280_pressure;Samples;Min_cycle;Max_cycle;Signal;HPM_P1;HPM_P2
2023/06/27 00:00:11;;;;;;;1.97;1.87;;;21.90;62.10;;;;;;5003612;28;20460;-72
2023/06/27 00:02:38;;;;;;;2.80;1.63;;;21.80;62.20;;;;;;4993800;28;20649;-72
2023/06/27 00:05:05;;;;;;;1.67;1.57;;;21.80;62.40;;;;;;5009806;28;20456;-72
2023/06/27 00:07:31;;;;;;;2.73;1.70;;;21.80;62.50;;;;;;4987006;28;20510;-72
2023/06/27 00:09:57;;;;;;;3.63;1.60;;;21.90;62.80;;;;;;5004884;28;20480;-73
2023/06/27 00:12:23;;;;;;;4.80;2.20;;;21.90;62.50;;;;;;4997440;28;20467;-71
2023/06/27 00:14:49;;;;;;;2.40;1.60;;;21.90;62.30;;;;;;5008018;28;20221;-72
2023/06/27 00:17:16;;;;;;;1.57;1.47;;;21.90;62.70;;;;;;4998708;28;20841;-71
2023/06/27 00:19:46;;;;;;;2.90;1.77;;;21.90;62.70;;;;;;5012928;28;20224;-71
2023/06/27 00:22:11;;;;;;;3.33;2.17;;;21.80;62.50;;;;;;5001849;28;20474;-74
2023/06/27 00:24:38;;;;;;;2.00;1.67;;;21.80;62.60;;;;;;5000052;28;20452;-72
2023/06/27 00:27:05;;;;;;;3.00;1.87;;;21.80;62.70;;;;;;5002008;28;20275;-72
2023/06/27 00:29:34;;;;;;;2.40;1.67;;;21.80;62.90;;;;;;4985043;28;20845;-72
2023/06/27 00:32:00;;;;;;;2.00;1.73;;;21.80;62.90;;;;;;4998933;28;20526;-71
2023/06/27 00:34:25;;;;;;;2.50;2.07;;;21.60;63.10;;;;;;4986136;28;20840;-71
2023/06/27 00:36:54;;;;;;;1.67;1.57;;;21.60;63.30;;;;;;5007602;28;20210;-71
2023/06/27 00:39:20;;;;;;;2.47;1.90;;;21.50;63.40;;;;;;5004284;28;20730;-71
2023/06/27 00:41:46;;;;;;;2.83;2.00;;;21.50;63.40;;;;;;5005085;28;20544;-71
2023/06/27 00:44:13;;;;;;;2.93;1.90;;;21.60;63.40;;;;;;4987918;28;20468;-71
2023/06/27 00:46:41;;;;;;;4.10;1.80;;;21.60;63.60;;;;;;4990502;28;20530;-71
2023/06/27 00:49:08;;;;;;;3.43;1.80;;;21.50;63.40;;;;;;4998137;28;20220;-71
2023/06/27 00:51:34;;;;;;;2.23;1.60;;;21.50;63.30;;;;;;4986477;28;20975;-71
2023/06/27 00:54:00;;;;;;;2.60;1.67;;;21.50;63.30;;;;;;4992830;28;20471;-71
2023/06/27 00:56:27;;;;;;;1.40;1.20;;;21.50;63.30;;;;;;4984715;28;20468;-71
2023/06/27 00:58:59;;;;;;;3.43;1.50;;;21.40;63.20;;;;;;5014560;28;20485;-71
2023/06/27 01:01:25;;;;;;;1.70;1.60;;;21.40;63.40;;;;;;4979322;28;20469;-71
2023/06/27 01:03:51;;;;;;;1.93;1.67;;;21.40;63.60;;;;;;4990261;28;21125;-72
2023/06/27 01:06:39;;;;;;;2.47;1.60;;;21.40;63.50;;;;;;4999899;28;20228;-71
2023/06/27 01:09:11;;;;;;;1.80;1.70;;;21.30;63.40;;;;;;5006120;28;20478;-71
2023/06/27 01:11:49;;;;;;;2.03;1.20;;;21.20;63.30;;;;;;5007463;28;20606;-72
2023/06/27 01:14:18;;;;;;;2.40;1.50;;;21.30;63.60;;;;;;5008482;28;20808;-71
2023/06/27 01:16:46;;;;;;;4.83;1.40;;;21.20;63.30;;;;;;5006549;28;20841;-71
2023/06/27 01:19:13;;;;;;;3.27;1.30;;;21.20;63.30;;;;;;4986376;28;20487;-71
2023/06/27 01:21:40;;;;;;;1.70;1.50;;;21.10;63.40;;;;;;4990174;28;20460;-71
2023/06/27 01:24:07;;;;;;;1.60;1.50;;;21.20;63.40;;;;;;4982420;28;20464;-71
2023/06/27 01:26:33;;;;;;;4.60;1.80;;;21.20;63.30;;;;;;5002407;28;20831;-72
2023/06/27 01:28:59;;;;;;;2.07;1.50;;;21.10;63.20;;;;;;5000924;28;20448;-71
2023/06/27 01:31:31;;;;;;;1.37;1.27;;;21.20;63.50;;;;;;4984384;28;20461;-72
2023/06/27 01:34:18;;;;;;;1.47;1.37;;;21.10;63.50;;;;;;4993015;28;20217;-72
2023/06/27 01:37:11;;;;;;;2.80;1.90;;;20.90;63.90;;;;;;5000594;28;20971;-72
2023/06/27 01:40:08;;;;;;;2.00;1.50;;;20.90;63.90;;;;;;5007330;28;20491;-71
2023/06/27 01:42:49;;;;;;;1.80;1.70;;;20.80;64.20;;;;;;5000362;28;21018;-72
2023/06/27 01:45:17;;;;;;;1.80;1.70;;;20.70;64.30;;;;;;4992835;28;20468;-71
2023/06/27 01:47:43;;;;;;;2.40;1.97;;;20.70;64.50;;;;;;5001759;28;20455;-72
2023/06/27 01:50:10;;;;;;;2.33;1.90;;;20.70;64.80;;;;;;4997108;28;20484;-72
2023/06/27 01:52:39;;;;;;;1.67;1.43;;;20.60;64.70;;;;;;5000908;28;20456;-72
2023/06/27 01:55:05;;;;;;;5.90;2.00;;;20.60;65.00;;;;;;5004897;28;20477;-72
2023/06/27 01:57:32;;;;;;;3.83;1.67;;;20.50;65.10;;;;;;5000214;28;20452;-72
2023/06/27 01:59:58;;;;;;;2.20;1.60;;;20.60;65.00;;;;;;4985717;28;20504;-71
2023/06/27 02:02:24;;;;;;;2.80;1.57;;;20.50;65.20;;;;;;5001465;28;20213;-72
2023/06/27 02:04:49;;;;;;;3.17;2.03;;;20.40;65.00;;;;;;5014105;28;20267;-72
2023/06/27 02:07:15;;;;;;;2.93;1.80;;;20.40;65.20;;;;;;5005963;28;20223;-71
2023/06/27 02:09:41;;;;;;;1.80;1.17;;;20.30;65.30;;;;;;5005223;28;20304;-72
2023/06/27 02:12:09;;;;;;;1.80;1.50;;;20.20;65.10;;;;;;4986694;28;20305;-71
2023/06/27 02:14:35;;;;;;;1.40;1.20;;;20.40;65.40;;;;;;5006035;28;20223;-71
2023/06/27 02:17:00;;;;;;;1.90;1.43;;;20.30;65.10;;;;;;4999904;28;20556;-72
2023/06/27 02:19:26;;;;;;;1.30;1.20;;;20.30;65.20;;;;;;4981365;28;20214;-71
2023/06/27 02:21:52;;;;;;;1.77;1.67;;;20.30;65.90;;;;;;4990046;28;20776;-70
2023/06/27 02:24:18;;;;;;;2.43;1.40;;;20.40;65.40;;;;;;4999907;28;20213;-71
2023/06/27 02:26:43;;;;;;;1.77;1.63;;;20.30;65.00;;;;;;4984159;28;20209;-72
2023/06/27 02:29:09;;;;;;;1.60;1.23;;;20.50;64.80;;;;;;4996972;28;20681;-73
2023/06/27 02:31:36;;;;;;;1.57;1.47;;;20.50;64.60;;;;;;5001589;28;20217;-71
2023/06/27 02:34:02;;;;;;;1.17;1.07;;;20.40;64.80;;;;;;5010855;28;20456;-72
2023/06/27 02:36:29;;;;;;;1.57;1.47;;;20.30;64.90;;;;;;4980779;28;20233;-71
2023/06/27 02:38:57;;;;;;;1.40;1.30;;;20.20;65.00;;;;;;5003666;28;20464;-72
2023/06/27 02:41:23;;;;;;;1.80;1.67;;;20.10;65.20;;;;;;4979968;28;21041;-71
2023/06/27 02:43:49;;;;;;;1.80;1.70;;;20.10;65.90;;;;;;4999916;28;20518;-73
2023/06/27 02:46:15;;;;;;;1.27;1.17;;;19.90;65.70;;;;;;5003748;28;21069;-71
2023/06/27 02:48:44;;;;;;;1.63;1.53;;;19.90;65.90;;;;;;5004515;28;20716;-71
2023/06/27 02:51:09;;;;;;;2.13;1.90;;;19.90;66.00;;;;;;4982955;28;20218;-73
2023/06/27 02:53:35;;;;;;;1.40;1.30;;;20.10;65.80;;;;;;4993447;28;20468;-71
2023/06/27 02:56:02;;;;;;;1.67;1.43;;;20.00;65.60;;;;;;5000329;28;20739;-71
2023/06/27 02:58:30;;;;;;;1.70;1.47;;;20.20;65.70;;;;;;4979945;28;20218;-72
2023/06/27 03:00:58;;;;;;;1.83;1.70;;;19.70;66.20;;;;;;4985812;28;20461;-72
2023/06/27 03:03:25;;;;;;;3.00;1.70;;;19.20;67.90;;;;;;4996473;28;20886;-71
2023/06/27 03:05:51;;;;;;;2.57;1.80;;;19.20;68.40;;;;;;5006007;28;20831;-72
2023/06/27 03:08:16;;;;;;;2.13;1.60;;;19.40;68.00;;;;;;4985620;28;20471;-71
2023/06/27 03:10:42;;;;;;;1.40;1.30;;;19.40;67.70;;;;;;4989874;28;20362;-71
2023/06/27 03:13:08;;;;;;;3.30;1.70;;;19.40;67.70;;;;;;4996666;28;20301;-72
2023/06/27 03:15:34;;;;;;;1.60;1.50;;;19.30;67.90;;;;;;4983343;28;20222;-71
2023/06/27 03:18:02;;;;;;;2.97;1.77;;;19.20;68.10;;;;;;4994935;28;20457;-71
2023/06/27 03:20:27;;;;;;;1.60;1.50;;;19.10;68.50;;;;;;4989731;28;20452;-71
2023/06/27 03:22:53;;;;;;;1.77;1.57;;;19.00;68.60;;;;;;4986627;28;20225;-70
2023/06/27 03:25:20;;;;;;;2.97;1.80;;;18.70;69.30;;;;;;4987639;28;20221;-71
2023/06/27 03:27:46;;;;;;;1.87;1.70;;;18.30;70.60;;;;;;5009342;28;20673;-71
2023/06/27 03:30:13;;;;;;;1.90;1.70;;;18.20;71.40;;;;;;4989105;28;20517;-71
2023/06/27 03:32:39;;;;;;;2.20;1.60;;;18.10;71.80;;;;;;4993490;28;20708;-72
2023/06/27 03:35:06;;;;;;;2.10;1.50;;;18.30;71.50;;;;;;4991885;28;20470;-71
2023/06/27 03:37:33;;;;;;;2.90;1.63;;;18.70;70.50;;;;;;5016697;28;20452;-71
2023/06/27 03:40:00;;;;;;;2.00;1.80;;;18.90;69.50;;;;;;5002086;28;20856;-71
2023/06/27 03:42:25;;;;;;;2.73;1.50;;;19.00;69.50;;;;;;4982905;28;20457;-71
2023/06/27 03:44:51;;;;;;;1.90;1.80;;;19.00;69.60;;;;;;4985999;28;20467;-71
2023/06/27 03:47:17;;;;;;;2.03;1.83;;;18.40;71.50;;;;;;4983444;28;20214;-71
2023/06/27 03:49:43;;;;;;;2.33;1.80;;;17.90;73.50;;;;;;4996055;28;20230;-72
2023/06/27 03:52:10;;;;;;;1.83;1.70;;;17.60;75.30;;;;;;5003848;28;20488;-72
2023/06/27 03:54:35;;;;;;;1.60;1.43;;;17.50;75.50;;;;;;4993613;28;20304;-70
2023/06/27 03:57:01;;;;;;;5.40;2.10;;;17.70;75.50;;;;;;4995639;28;20556;-71
2023/06/27 03:59:27;;;;;;;2.80;2.00;;;17.90;75.10;;;;;;4987219;28;20221;-72
2023/06/27 04:01:53;;;;;;;2.70;1.83;;;17.90;75.40;;;;;;4992886;28;20214;-70
2023/06/27 04:04:19;;;;;;;2.60;1.80;;;18.00;75.10;;;;;;5009256;28;20217;-70
2023/06/27 04:06:45;;;;;;;2.50;1.30;;;18.00;75.50;;;;;;5000529;28;20858;-69
2023/06/27 04:09:10;;;;;;;2.30;1.90;;;17.80;76.60;;;;;;4995570;28;20715;-71
2023/06/27 04:11:36;;;;;;;1.73;1.47;;;17.70;76.80;;;;;;5009835;28;20221;-71
2023/06/27 04:14:02;;;;;;;1.77;1.40;;;17.90;76.50;;;;;;4996446;28;20225;-71
2023/06/27 04:16:28;;;;;;;1.73;1.50;;;18.30;75.20;;;;;;5014418;28;20231;-72
2023/06/27 04:18:54;;;;;;;1.90;1.60;;;18.50;74.00;;;;;;5011837;28;20218;-72
2023/06/27 04:21:21;;;;;;;6.03;1.90;;;18.70;73.50;;;;;;4997985;28;20468;-71
2023/06/27 04:23:47;;;;;;;2.53;1.43;;;18.70;72.90;;;;;;4992239;28;20867;-72
2023/06/27 04:26:15;;;;;;;3.63;1.93;;;18.80;72.70;;;;;;5008697;28;20576;-72
2023/06/27 04:28:43;;;;;;;1.90;1.40;;;18.90;72.60;;;;;;5002740;28;20215;-72
2023/06/27 04:31:09;;;;;;;1.67;1.37;;;19.00;72.10;;;;;;4998731;28;20457;-72
2023/06/27 04:33:39;;;;;;;1.70;1.60;;;19.00;71.60;;;;;;5015591;28;20539;-71
2023/06/27 04:36:06;;;;;;;3.00;2.07;;;19.00;72.20;;;;;;5010195;28;20484;-71
2023/06/27 04:38:37;;;;;;;3.13;1.70;;;19.00;72.30;;;;;;5008345;28;20535;-72
2023/06/27 04:41:07;;;;;;;2.43;2.00;;;19.00;72.40;;;;;;5007149;28;20955;-72
2023/06/27 04:43:34;;;;;;;3.90;1.73;;;19.00;72.20;;;;;;4994646;28;20461;-72
2023/06/27 04:46:00;;;;;;;1.60;1.50;;;19.00;72.50;;;;;;5007702;28;20469;-72
2023/06/27 04:48:27;;;;;;;3.13;1.60;;;18.90;72.90;;;;;;5009185;28;20295;-73
2023/06/27 04:50:53;;;;;;;1.90;1.80;;;18.80;73.80;;;;;;4987090;28;20461;-73
2023/06/27 04:53:20;;;;;;;3.20;1.50;;;18.80;73.80;;;;;;5001615;28;20469;-72
2023/06/27 04:55:50;;;;;;;2.50;1.60;;;18.90;73.70;;;;;;4985771;28;20878;-71
2023/06/27 04:58:16;;;;;;;2.63;1.93;;;18.90;73.60;;;;;;5005185;28;20472;-72
2023/06/27 05:00:47;;;;;;;3.47;2.23;;;18.90;73.00;;;;;;5001420;28;20457;-71
2023/06/27 05:03:13;;;;;;;3.10;1.80;;;19.00;73.20;;;;;;4996699;28;21086;-72
2023/06/27 05:05:39;;;;;;;2.90;1.40;;;19.00;73.00;;;;;;4988854;28;20912;-70
2023/06/27 05:08:05;;;;;;;2.20;1.60;;;19.10;72.60;;;;;;5006006;28;20600;-70
2023/06/27 05:10:31;;;;;;;3.60;1.53;;;19.10;72.50;;;;;;5005554;28;20682;-72
2023/06/27 05:12:58;;;;;;;1.70;1.60;;;19.10;72.40;;;;;;4983549;28;20496;-72
2023/06/27 05:15:23;;;;;;;1.53;1.43;;;19.20;73.20;;;;;;4991863;28;20468;-71
2023/06/27 05:18:05;;;;;;;1.83;1.63;;;19.20;72.00;;;;;;5004001;28;20461;-71
2023/06/27 05:20:31;;;;;;;2.73;1.57;;;19.20;72.40;;;;;;4983724;28;20222;-71
2023/06/27 05:22:57;;;;;;;1.90;1.70;;;19.20;72.20;;;;;;5001282;28;20491;-72
2023/06/27 05:25:22;;;;;;;1.60;1.50;;;19.20;72.10;;;;;;5006200;28;20644;-72
2023/06/27 05:27:48;;;;;;;1.43;1.33;;;19.20;72.40;;;;;;4991022;28;20226;-72
2023/06/27 05:30:14;;;;;;;4.90;1.93;;;19.20;72.10;;;;;;5006295;28;20210;-72
2023/06/27 05:32:39;;;;;;;2.73;1.90;;;19.20;71.90;;;;;;5004350;28;20753;-72
2023/06/27 05:35:05;;;;;;;2.17;1.40;;;19.30;72.30;;;;;;5005657;28;20210;-71
2023/06/27 05:37:31;;;;;;;4.80;1.53;;;19.30;72.20;;;;;;5000623;28;20234;-71
2023/06/27 05:39:57;;;;;;;1.60;1.50;;;19.20;73.30;;;;;;4995605;28;20218;-72
2023/06/27 05:42:23;;;;;;;2.33;1.80;;;19.20;73.10;;;;;;5003818;28;20743;-71
2023/06/27 05:44:48;;;;;;;3.40;1.53;;;19.20;73.90;;;;;;4999209;28;20468;-72
2023/06/27 05:47:14;;;;;;;2.70;1.60;;;19.20;73.80;;;;;;5003258;28;20280;-72
2023/06/27 05:49:39;;;;;;;4.60;1.73;;;19.20;74.00;;;;;;4998799;28;20229;-72
2023/06/27 05:52:05;;;;;;;1.70;1.60;;;19.20;74.30;;;;;;5001159;28;20241;-72
2023/06/27 05:54:31;;;;;;;2.23;1.73;;;19.30;73.90;;;;;;5014799;28;20719;-72
2023/06/27 05:56:56;;;;;;;1.60;1.50;;;19.30;73.70;;;;;;4998361;28;20221;-73
2023/06/27 05:59:22;;;;;;;2.67;1.40;;;19.30;73.70;;;;;;4982381;28;20728;-71
2023/06/27 06:01:48;;;;;;;2.47;2.27;;;19.40;73.70;;;;;;4999483;28;20222;-72
2023/06/27 06:04:13;;;;;;;1.27;1.17;;;19.40;73.10;;;;;;5012448;28;20214;-72
2023/06/27 06:06:39;;;;;;;1.70;1.50;;;19.50;73.80;;;;;;4986691;28;20274;-72
2023/06/27 06:09:05;;;;;;;3.30;1.73;;;19.40;74.20;;;;;;4997069;28;20229;-71
2023/06/27 06:11:34;;;;;;;2.20;1.50;;;19.40;74.10;;;;;;4988032;28;20727;-73
2023/06/27 06:14:01;;;;;;;2.43;2.17;;;19.40;73.40;;;;;;5006259;28;20516;-72
2023/06/27 06:16:27;;;;;;;1.53;1.43;;;19.50;73.70;;;;;;4997690;28;20458;-71
2023/06/27 06:18:53;;;;;;;2.10;1.60;;;19.50;73.70;;;;;;4997770;28;20549;-73
2023/06/27 06:21:19;;;;;;;2.60;1.40;;;19.50;73.80;;;;;;4997215;28;20469;-71
2023/06/27 06:23:45;;;;;;;6.53;1.50;;;19.50;74.60;;;;;;4998822;28;20462;-71
2023/06/27 06:26:11;;;;;;;2.67;1.47;;;19.50;74.50;;;;;;5002877;28;20518;-72
2023/06/27 06:28:37;;;;;;;4.50;1.77;;;19.50;74.40;;;;;;5004660;28;20225;-72
2023/06/27 06:31:04;;;;;;;2.80;1.67;;;19.50;73.90;;;;;;5001118;28;20225;-72
2023/06/27 06:33:30;;;;;;;3.33;1.70;;;19.60;74.00;;;;;;4998828;28;20453;-73
2023/06/27 06:35:56;;;;;;;2.77;1.40;;;19.60;74.00;;;;;;5000394;28;20831;-71
2023/06/27 06:38:22;;;;;;;2.03;1.93;;;19.60;74.20;;;;;;4993281;28;20652;-71
2023/06/27 06:40:47;;;;;;;1.50;1.40;;;19.70;74.00;;;;;;5005861;28;20468;-72
2023/06/27 06:43:13;;;;;;;1.90;1.50;;;19.70;74.20;;;;;;4996226;28;20226;-72
2023/06/27 06:45:38;;;;;;;1.53;1.43;;;19.70;74.80;;;;;;4989533;28;20210;-72
2023/06/27 06:48:04;;;;;;;2.03;1.83;;;19.70;74.30;;;;;;5000609;28;20213;-72
2023/06/27 06:50:32;;;;;;;2.00;1.73;;;19.80;74.60;;;;;;5001165;28;20325;-72
2023/06/27 06:52:58;;;;;;;2.53;1.97;;;19.90;74.70;;;;;;5007032;28;20483;-73
2023/06/27 06:55:23;;;;;;;2.87;1.63;;;19.90;74.80;;;;;;4988513;28;20882;-72
2023/06/27 06:57:49;;;;;;;2.67;1.73;;;19.90;75.00;;;;;;4990793;28;20217;-72
2023/06/27 07:00:17;;;;;;;3.53;1.77;;;20.00;74.60;;;;;;5006875;28;20244;-72
2023/06/27 07:02:42;;;;;;;2.10;1.83;;;20.00;74.70;;;;;;5000953;28;20218;-72
2023/06/27 07:05:10;;;;;;;4.83;1.80;;;20.10;75.00;;;;;;5000894;28;20832;-73
2023/06/27 07:07:35;;;;;;;1.57;1.47;;;20.20;74.30;;;;;;5004359;28;20230;-71
2023/06/27 07:10:01;;;;;;;5.20;2.20;;;20.20;74.40;;;;;;5003895;28;20484;-73
2023/06/27 07:12:27;;;;;;;3.30;1.87;;;20.20;74.50;;;;;;4987530;28;20261;-72
2023/06/27 07:14:52;;;;;;;2.00;1.70;;;20.30;74.00;;;;;;5010730;28;20308;-72
2023/06/27 07:17:18;;;;;;;4.10;1.83;;;20.30;74.20;;;;;;5004892;28;20277;-72
2023/06/27 07:19:44;;;;;;;1.80;1.70;;;20.40;74.40;;;;;;5005946;28;20868;-72
2023/06/27 07:22:10;;;;;;;3.43;1.60;;;20.50;74.60;;;;;;5009168;28;20233;-71
2023/06/27 07:24:36;;;;;;;4.30;1.60;;;20.60;74.80;;;;;;5003821;28;20292;-72
2023/06/27 07:27:02;;;;;;;3.00;1.77;;;20.70;74.80;;;;;;5007016;28;20253;-71
2023/06/27 07:29:27;;;;;;;3.90;1.93;;;20.70;74.90;;;;;;5002563;28;20272;-73
2023/06/27 07:31:53;;;;;;;2.23;1.60;;;20.80;74.80;;;;;;4994345;28;20453;-73
2023/06/27 07:34:19;;;;;;;4.77;2.00;;;20.90;74.90;;;;;;4995688;28;20276;-73
2023/06/27 07:36:44;;;;;;;1.83;1.70;;;21.00;74.80;;;;;;4996379;28;20280;-72
2023/06/27 07:39:10;;;;;;;2.10;1.90;;;21.00;74.60;;;;;;4976843;28;20700;-73
2023/06/27 07:41:36;;;;;;;2.97;2.00;;;21.10;75.10;;;;;;4980591;28;20218;-72
2023/06/27 07:44:02;;;;;;;3.00;2.00;;;21.10;75.00;;;;;;4981833;28;20244;-73
2023/06/27 07:46:28;;;;;;;2.93;2.07;;;21.20;75.10;;;;;;4996462;28;20222;-72
2023/06/27 07:48:58;;;;;;;2.33;2.10;;;21.30;75.60;;;;;;4997861;28;20470;-72
2023/06/27 07:51:26;;;;;;;2.60;2.10;;;21.50;75.10;;;;;;4996399;28;20477;-72
2023/06/27 07:53:51;;;;;;;2.40;1.70;;;21.50;75.00;;;;;;5000268;28;20555;-72
2023/06/27 07:56:18;;;;;;;2.07;1.73;;;21.60;75.20;;;;;;4992189;28;20576;-72
2023/06/27 07:58:44;;;;;;;2.10;1.53;;;21.60;73.50;;;;;;4998938;28;20228;-72
2023/06/27 08:01:10;;;;;;;7.60;1.90;;;21.70;73.70;;;;;;4999245;28;20478;-72
2023/06/27 08:03:36;;;;;;;4.10;1.93;;;21.70;73.80;;;;;;4993591;28;20909;-73
2023/06/27 08:06:05;;;;;;;1.90;1.70;;;21.80;73.90;;;;;;4994765;28;20468;-75
2023/06/27 08:08:31;;;;;;;4.13;2.03;;;21.90;73.80;;;;;;4991963;28;20243;-72
2023/06/27 08:10:57;;;;;;;5.33;2.13;;;22.00;73.50;;;;;;4998017;28;20522;-71
2023/06/27 08:13:24;;;;;;;2.50;1.60;;;22.10;73.50;;;;;;4992246;28;20471;-72
2023/06/27 08:15:50;;;;;;;2.60;1.70;;;22.30;72.30;;;;;;4999237;28;20235;-71
2023/06/27 08:18:16;;;;;;;1.93;1.67;;;22.30;73.20;;;;;;4996313;28;20466;-71
2023/06/27 08:20:41;;;;;;;2.30;1.97;;;22.40;72.10;;;;;;4992000;28;20312;-71
2023/06/27 08:23:07;;;;;;;1.70;1.60;;;22.50;70.80;;;;;;4997893;28;20700;-72
2023/06/27 08:25:33;;;;;;;2.70;1.87;;;22.60;70.50;;;;;;4978050;28;20260;-72
2023/06/27 08:27:59;;;;;;;2.27;1.70;;;22.70;69.90;;;;;;4979623;28;20345;-71
2023/06/27 08:30:26;;;;;;;1.83;1.73;;;22.70;69.50;;;;;;5000668;28;20205;-72
2023/06/27 08:32:54;;;;;;;1.60;1.50;;;22.60;69.70;;;;;;5003272;28;20798;-70
2023/06/27 08:35:21;;;;;;;2.93;1.63;;;22.70;70.60;;;;;;4995434;28;20536;-70
2023/06/27 08:37:46;;;;;;;3.37;1.50;;;22.90;71.00;;;;;;5001543;28;20465;-71
2023/06/27 08:40:26;;;;;;;1.80;1.53;;;23.00;70.10;;;;;;5003139;28;20527;-71
2023/06/27 08:42:52;;;;;;;2.37;2.17;;;23.10;69.90;;;;;;5004189;28;20222;-71
2023/06/27 08:45:17;;;;;;;2.23;1.70;;;22.90;68.30;;;;;;4979742;28;20471;-71
2023/06/27 08:47:46;;;;;;;2.20;1.70;;;22.90;69.60;;;;;;4999698;28;20595;-73
2023/06/27 08:50:17;;;;;;;2.13;1.83;;;22.80;68.30;;;;;;4976546;28;20217;-71
2023/06/27 08:52:49;;;;;;;1.80;1.70;;;22.80;69.40;;;;;;4991579;28;20896;-71
2023/06/27 08:55:31;;;;;;;3.17;2.00;;;22.90;69.50;;;;;;4970142;28;20495;-71
2023/06/27 08:57:58;;;;;;;2.73;1.60;;;23.00;69.00;;;;;;4998345;28;20460;-72
2023/06/27 09:00:26;;;;;;;2.30;1.63;;;23.10;68.10;;;;;;4983961;28;20544;-71
2023/06/27 09:02:52;;;;;;;1.90;1.80;;;23.20;66.60;;;;;;4986437;28;20457;-73
2023/06/27 09:05:19;;;;;;;2.87;1.80;;;23.30;64.20;;;;;;4987780;28;20562;-72
2023/06/27 09:07:44;;;;;;;3.27;2.20;;;23.30;63.80;;;;;;4993050;28;20463;-72
2023/06/27 09:10:10;;;;;;;2.37;1.77;;;23.20;64.30;;;;;;4986540;28;20468;-73
2023/06/27 09:12:37;;;;;;;2.03;1.90;;;23.30;64.40;;;;;;4986289;28;20264;-72
2023/06/27 09:15:04;;;;;;;1.80;1.70;;;23.30;64.30;;;;;;4987034;28;20220;-74
2023/06/27 09:17:30;;;;;;;4.20;2.83;;;23.40;64.60;;;;;;4985426;28;20548;-71
2023/06/27 09:19:55;;;;;;;3.87;2.40;;;23.60;65.40;;;;;;4983088;28;21062;-71
2023/06/27 09:22:23;;;;;;;2.10;2.00;;;23.60;64.30;;;;;;4986709;28;20221;-71
2023/06/27 09:24:49;;;;;;;2.53;2.33;;;23.60;64.70;;;;;;4989121;28;20225;-71
2023/06/27 09:27:31;;;;;;;2.00;1.80;;;23.60;65.60;;;;;;4992470;28;20467;-72
2023/06/27 09:30:08;;;;;;;2.30;1.53;;;23.80;65.60;;;;;;4987723;28;20222;-73
2023/06/27 09:33:03;;;;;;;3.47;2.30;;;24.10;66.10;;;;;;4990987;28;20539;-71
2023/06/27 09:35:31;;;;;;;3.20;2.07;;;24.20;63.80;;;;;;4989022;28;20476;-72
2023/06/27 09:38:06;;;;;;;2.57;1.87;;;24.30;63.80;;;;;;5000924;28;20823;-72
2023/06/27 09:40:35;;;;;;;2.07;1.87;;;24.30;63.50;;;;;;4998176;28;20444;-72
2023/06/27 09:43:01;;;;;;;2.20;1.87;;;24.30;63.00;;;;;;4993266;28;20527;-72
2023/06/27 09:45:30;;;;;;;2.13;1.93;;;24.20;64.70;;;;;;4996213;28;20465;-72
2023/06/27 09:47:57;;;;;;;1.97;1.77;;;24.30;64.60;;;;;;4998920;28;20328;-72
2023/06/27 09:50:32;;;;;;;4.53;1.90;;;24.70;64.40;;;;;;4982122;28;20974;-71
2023/06/27 09:52:59;;;;;;;4.53;2.33;;;24.90;63.80;;;;;;4994413;28;20931;-72
2023/06/27 09:55:26;;;;;;;3.00;2.07;;;24.80;63.20;;;;;;4982093;28;20475;-71
2023/06/27 09:57:52;;;;;;;3.00;2.23;;;25.00;60.40;;;;;;4997492;28;20478;-72
2023/06/27 10:00:20;;;;;;;2.50;2.07;;;24.80;60.40;;;;;;4978813;28;20496;-72
2023/06/27 10:02:52;;;;;;;2.47;2.20;;;24.80;60.10;;;;;;4998114;28;20466;-72
2023/06/27 10:05:20;;;;;;;2.37;2.17;;;24.70;60.00;;;;;;4994876;28;20469;-72
2023/06/27 10:07:49;;;;;;;2.30;2.10;;;24.80;62.10;;;;;;4984118;28;20453;-72
2023/06/27 10:10:15;;;;;;;2.33;1.97;;;24.90;61.30;;;;;;4994383;28;20456;-72
2023/06/27 10:12:42;;;;;;;2.20;2.00;;;25.20;60.90;;;;;;4996919;28;20519;-72
2023/06/27 10:15:09;;;;;;;2.20;2.00;;;25.30;59.40;;;;;;4999942;28;20563;-72
2023/06/27 10:17:35;;;;;;;7.00;2.13;;;25.30;57.30;;;;;;4980262;28;20454;-73
2023/06/27 10:20:03;;;;;;;2.20;1.90;;;25.30;57.80;;;;;;4992188;28;20562;-72
2023/06/27 10:22:32;;;;;;;2.07;1.67;;;25.20;56.30;;;;;;4992222;28;20313;-72
2023/06/27 10:25:08;;;;;;;2.00;1.70;;;25.30;56.20;;;;;;4983225;28;20532;-71
2023/06/27 10:27:38;;;;;;;2.67;1.90;;;25.40;56.10;;;;;;5000837;28;20451;-72
2023/06/27 10:30:18;;;;;;;2.43;1.93;;;25.50;55.80;;;;;;5001251;28;20551;-72
2023/06/27 10:32:44;;;;;;;1.73;1.63;;;25.60;55.90;;;;;;4997548;28;20456;-72
2023/06/27 10:35:26;;;;;;;1.70;1.60;;;25.70;55.80;;;;;;4985015;28;20472;-73
2023/06/27 10:38:05;;;;;;;2.80;1.90;;;25.70;55.40;;;;;;5002906;28;20292;-72
2023/06/27 10:41:02;;;;;;;3.23;1.77;;;25.70;57.00;;;;;;4992964;28;21008;-73
2023/06/27 10:43:57;;;;;;;1.50;1.40;;;25.50;56.70;;;;;;4997043;28;21101;-72
2023/06/27 10:46:28;;;;;;;1.40;1.30;;;25.40;56.60;;;;;;4994943;28;20918;-72
2023/06/27 10:48:59;;;;;;;3.00;2.20;;;25.50;56.30;;;;;;5012287;28;20463;-71
2023/06/27 10:51:34;;;;;;;2.90;1.93;;;25.70;55.80;;;;;;4987151;28;20455;-72
2023/06/27 10:54:09;;;;;;;1.90;1.73;;;25.80;55.00;;;;;;5000176;28;20491;-71
2023/06/27 10:56:39;;;;;;;3.70;1.70;;;25.90;55.20;;;;;;5000982;28;20464;-71
2023/06/27 10:59:09;;;;;;;1.97;1.87;;;25.80;55.50;;;;;;5002818;28;20474;-70
2023/06/27 11:01:35;;;;;;;3.10;1.70;;;25.90;55.50;;;;;;5000133;28;20464;-72
2023/06/27 11:04:25;;;;;;;1.70;1.60;;;26.10;55.40;;;;;;4998593;28;20531;-72
2023/06/27 11:06:59;;;;;;;2.80;2.17;;;26.30;55.40;;;;;;4995705;28;20465;-72
2023/06/27 11:09:25;;;;;;;2.03;1.77;;;25.90;55.40;;;;;;5003886;28;20476;-71
2023/06/27 11:12:06;;;;;;;1.67;1.57;;;25.70;56.00;;;;;;4999882;28;20595;-72
2023/06/27 11:14:39;;;;;;;1.83;1.70;;;25.80;55.40;;;;;;4994564;28;20221;-72
2023/06/27 11:17:05;;;;;;;1.70;1.60;;;25.90;55.60;;;;;;4999971;28;20905;-72
2023/06/27 11:19:32;;;;;;;4.13;1.87;;;26.10;54.60;;;;;;4998301;28;20457;-71
2023/06/27 11:21:59;;;;;;;3.33;1.70;;;26.20;54.60;;;;;;4999250;28;20320;-72
2023/06/27 11:24:26;;;;;;;1.40;1.30;;;26.40;54.50;;;;;;4980951;28;20471;-72
2023/06/27 11:26:53;;;;;;;1.93;1.73;;;26.40;54.70;;;;;;4999320;28;20449;-72
2023/06/27 11:29:20;;;;;;;2.50;2.03;;;26.40;54.00;;;;;;5001216;28;20879;-73
2023/06/27 11:31:46;;;;;;;3.47;1.80;;;26.40;54.20;;;;;;5001469;28;20504;-72
2023/06/27 11:34:12;;;;;;;2.07;1.87;;;26.50;54.50;;;;;;5000238;28;20469;-73
2023/06/27 11:36:38;;;;;;;3.77;1.90;;;26.40;53.50;;;;;;5003707;28;20525;-73
2023/06/27 11:39:05;;;;;;;3.10;1.70;;;26.30;52.90;;;;;;4996486;28;20755;-72
2023/06/27 11:41:30;;;;;;;5.77;2.10;;;26.30;53.70;;;;;;4995221;28;20457;-74
2023/06/27 11:43:56;;;;;;;2.47;1.73;;;26.10;54.30;;;;;;4997862;28;20542;-72
2023/06/27 11:46:22;;;;;;;3.93;1.80;;;26.00;54.60;;;;;;5001616;28;20222;-72
2023/06/27 11:48:48;;;;;;;4.00;2.30;;;26.00;54.60;;;;;;4995667;28;20232;-72
2023/06/27 11:51:14;;;;;;;2.97;2.40;;;25.90;54.70;;;;;;4995532;28;20221;-72
2023/06/27 11:53:50;;;;;;;1.53;1.43;;;26.20;55.00;;;;;;4996665;28;20464;-72
2023/06/27 11:56:17;;;;;;;2.03;1.93;;;26.30;54.40;;;;;;4996686;28;20491;-72
2023/06/27 11:58:46;;;;;;;1.70;1.60;;;26.30;54.50;;;;;;5002194;28;20883;-73
2023/06/27 12:01:16;;;;;;;1.83;1.73;;;26.40;54.30;;;;;;5000640;28;20507;-72
2023/06/27 12:03:50;;;;;;;2.30;1.77;;;26.40;54.40;;;;;;4999856;28;20472;-72
2023/06/27 12:06:29;;;;;;;1.63;1.43;;;26.20;54.70;;;;;;5002169;28;20469;-72
2023/06/27 12:08:56;;;;;;;4.40;2.00;;;26.30;54.60;;;;;;5013481;28;20482;-74
2023/06/27 12:11:32;;;;;;;2.30;1.80;;;26.40;54.70;;;;;;4991259;28;20508;-72
2023/06/27 12:13:58;;;;;;;1.97;1.63;;;26.60;53.60;;;;;;4996409;28;20489;-71
2023/06/27 12:16:33;;;;;;;2.83;2.00;;;26.70;53.70;;;;;;4981360;28;21010;-73
2023/06/27 12:19:08;;;;;;;1.93;1.37;;;26.70;54.00;;;;;;5005323;28;20224;-72
2023/06/27 12:21:34;;;;;;;2.67;1.47;;;26.80;54.30;;;;;;4999527;28;20470;-72
2023/06/27 12:24:00;;;;;;;1.80;1.70;;;26.90;53.50;;;;;;5002589;28;20469;-72
2023/06/27 12:26:25;;;;;;;5.07;2.43;;;27.00;53.80;;;;;;5003384;28;20290;-74
2023/06/27 12:28:59;;;;;;;1.80;1.70;;;26.90;53.50;;;;;;4985636;28;20324;-72
2023/06/27 12:31:26;;;;;;;1.80;1.70;;;26.90;53.50;;;;;;5001235;28;20225;-72
2023/06/27 12:33:52;;;;;;;2.30;2.10;;;26.80;53.20;;;;;;4997929;28;20257;-72
2023/06/27 12:36:21;;;;;;;2.58;1.67;;;26.90;53.30;;;;;;4980907;28;20485;-75
2023/06/27 12:38:47;;;;;;;1.70;1.60;;;26.90;53.00;;;;;;4995217;28;20224;-71
2023/06/27 12:41:13;;;;;;;3.50;2.63;;;26.70;53.40;;;;;;4998358;28;20360;-71
2023/06/27 12:43:39;;;;;;;2.67;1.60;;;26.70;54.30;;;;;;4994158;28;20927;-70
2023/06/27 12:46:05;;;;;;;1.77;1.67;;;26.70;54.40;;;;;;5012458;28;20229;-72
2023/06/27 12:48:32;;;;;;;3.73;2.20;;;27.00;53.90;;;;;;5000333;28;20217;-72
2023/06/27 12:50:58;;;;;;;2.08;1.92;;;27.20;54.00;;;;;;5001596;28;20225;-72